Time;durP1;ratioP1;P1;durP2;ratioP2;P2;SDS_P1;SDS_P2;PMS_P1;PMS_P2;Temp;Humidity;BMP_temperature;BMP_pressure;BME280_temperature;BME280_humidity;BME280_pressure;Samples;Min_cycle;Max_cycle;Signal;HPM_P1;HPM_P2
2022/12/14 00:01:26;;;;;;;51.75;27.77;;;-1.30;99.90;;;;;;4844702;29;20146;-81
2022/12/14 00:03:55;;;;;;;51.83;28.17;;;-1.20;99.90;;;;;;4842012;29;20145;-81
2022/12/14 00:06:30;;;;;;;53.10;26.75;;;-1.20;99.90;;;;;;4839570;29;20133;-81
2022/12/14 00:09:03;;;;;;;55.25;27.58;;;-1.20;99.90;;;;;;4838945;29;20134;-80
2022/12/14 00:11:32;;;;;;;55.17;28.27;;;-1.20;99.90;;;;;;4850709;29;20062;-81
2022/12/14 00:14:01;;;;;;;51.15;26.52;;;-1.10;99.90;;;;;;4835175;29;20144;-80
2022/12/14 00:16:30;;;;;;;48.22;26.38;;;-1.10;99.90;;;;;;4832400;29;20145;-80
2022/12/14 00:18:59;;;;;;;52.95;27.85;;;-1.00;99.90;;;;;;4832845;29;20608;-80
2022/12/14 00:21:26;;;;;;;52.10;26.65;;;-1.00;99.90;;;;;;4835113;29;20145;-79
2022/12/14 00:23:54;;;;;;;47.42;25.67;;;-1.00;99.90;;;;;;4848370;29;20140;-80
2022/12/14 00:26:23;;;;;;;49.20;25.73;;;-0.90;99.90;;;;;;4842388;29;20072;-80
2022/12/14 00:28:52;;;;;;;53.75;27.65;;;-0.90;99.90;;;;;;4840847;29;20077;-81
2022/12/14 00:31:20;;;;;;;48.42;26.83;;;-0.90;99.90;;;;;;4837504;29;20526;-80
2022/12/14 00:33:47;;;;;;;47.28;25.85;;;-0.90;99.90;;;;;;4836904;29;20054;-80
2022/12/14 00:36:14;;;;;;;46.90;26.80;;;-0.90;99.90;;;;;;4832654;29;20061;-80
2022/12/14 00:38:41;;;;;;;48.45;26.48;;;-0.90;99.90;;;;;;4830238;29;20099;-80
2022/12/14 00:41:09;;;;;;;51.13;27.73;;;-0.90;99.90;;;;;;4827179;29;20114;-80
2022/12/14 00:43:36;;;;;;;50.35;27.90;;;-0.90;99.90;;;;;;4831056;29;20532;-80
2022/12/14 00:46:02;;;;;;;46.83;25.95;;;-0.80;99.90;;;;;;4839614;29;20086;-80
2022/12/14 00:48:29;;;;;;;49.85;26.23;;;-0.80;99.90;;;;;;4839431;29;20093;-81
2022/12/14 00:50:57;;;;;;;54.30;27.27;;;-0.80;99.90;;;;;;4836952;29;20061;-80
2022/12/14 00:53:25;;;;;;;51.10;27.38;;;-0.80;99.90;;;;;;4833778;29;20185;-80
2022/12/14 00:55:52;;;;;;;51.15;28.13;;;-0.80;99.90;;;;;;4834023;29;20046;-81
2022/12/14 00:58:21;;;;;;;51.20;26.63;;;-0.80;99.90;;;;;;4828640;29;20523;-80
2022/12/14 01:01:01;;;;;;;54.13;26.73;;;-0.80;99.90;;;;;;4828934;29;20469;-80
2022/12/14 01:03:28;;;;;;;53.28;27.85;;;-0.70;99.90;;;;;;4827448;29;20531;-80
2022/12/14 01:05:56;;;;;;;51.05;27.58;;;-0.70;99.90;;;;;;4839580;29;20054;-81
2022/12/14 01:08:23;;;;;;;53.00;28.20;;;-0.70;99.90;;;;;;4838056;29;20086;-81
2022/12/14 01:10:51;;;;;;;50.33;26.52;;;-0.70;99.90;;;;;;4838388;29;20073;-80
2022/12/14 01:13:17;;;;;;;48.55;25.55;;;-0.70;99.90;;;;;;4834764;29;20058;-80
2022/12/14 01:15:44;;;;;;;48.22;26.58;;;-0.60;99.90;;;;;;4834103;29;20086;-80
2022/12/14 01:18:11;;;;;;;51.00;26.33;;;-0.60;99.90;;;;;;4832721;29;20064;-80
2022/12/14 01:20:38;;;;;;;52.08;26.98;;;-0.60;99.90;;;;;;4830300;29;20089;-78
2022/12/14 01:23:05;;;;;;;50.45;26.77;;;-0.60;99.90;;;;;;4827944;29;20170;-79
2022/12/14 01:25:31;;;;;;;55.35;28.45;;;-0.60;99.90;;;;;;4827622;29;20530;-79
2022/12/14 01:27:58;;;;;;;56.30;28.63;;;-0.60;99.90;;;;;;4841820;29;20144;-80
2022/12/14 01:30:25;;;;;;;56.13;28.20;;;-0.50;99.90;;;;;;4840029;29;20045;-80
2022/12/14 01:32:52;;;;;;;52.28;28.02;;;-0.50;99.90;;;;;;4837661;29;20074;-80
2022/12/14 01:35:18;;;;;;;47.75;26.58;;;-0.50;99.90;;;;;;4840565;29;20058;-80
2022/12/14 01:37:45;;;;;;;51.53;26.92;;;-0.50;99.90;;;;;;4832916;29;20054;-80
2022/12/14 01:40:15;;;;;;;48.63;27.77;;;-0.50;99.90;;;;;;4831406;29;20055;-81
2022/12/14 01:42:41;;;;;;;52.50;28.13;;;-0.40;99.90;;;;;;4837792;29;20152;-80
2022/12/14 01:45:21;;;;;;;50.10;27.73;;;-0.40;99.90;;;;;;4840481;29;20144;-80
2022/12/14 01:47:55;;;;;;;52.97;28.55;;;-0.40;99.90;;;;;;4836452;29;20060;-80
2022/12/14 01:50:32;;;;;;;50.15;28.08;;;-0.30;99.90;;;;;;4840433;29;20114;-80
2022/12/14 01:53:04;;;;;;;53.78;27.70;;;-0.30;99.90;;;;;;4830585;29;20137;-81
2022/12/14 01:55:42;;;;;;;52.10;26.83;;;-0.30;99.90;;;;;;4836151;29;20074;-79
2022/12/14 01:58:19;;;;;;;49.55;25.73;;;-0.30;99.90;;;;;;4837898;29;20067;-80
2022/12/14 02:00:46;;;;;;;49.42;26.98;;;-0.30;99.90;;;;;;4833325;29;20064;-81
2022/12/14 02:03:20;;;;;;;49.70;26.88;;;-0.30;99.90;;;;;;4831256;29;20054;-81
2022/12/14 02:05:54;;;;;;;50.88;26.90;;;-0.30;99.90;;;;;;4841465;29;20058;-80
2022/12/14 02:08:23;;;;;;;46.17;25.67;;;-0.20;99.90;;;;;;4826730;29;20137;-80
2022/12/14 02:10:52;;;;;;;47.20;26.00;;;-0.30;99.90;;;;;;4844343;29;20056;-79
2022/12/14 02:13:22;;;;;;;44.95;25.17;;;-0.20;99.90;;;;;;4838254;29;20394;-79
2022/12/14 02:15:49;;;;;;;;;;;-0.20;99.90;;;;;;4837685;29;20085;-81
2022/12/14 02:18:23;;;;;;;46.60;25.85;;;-0.20;99.90;;;;;;4837320;29;20657;-80
2022/12/14 02:21:16;;;;;;;50.42;26.00;;;-0.20;99.90;;;;;;4837012;29;20189;-79
2022/12/14 02:24:05;;;;;;;45.45;24.45;;;-0.20;99.90;;;;;;4841695;29;20065;-81
2022/12/14 02:26:31;;;;;;;48.92;26.67;;;-0.20;99.90;;;;;;4843631;29;20423;-80
2022/12/14 02:29:06;;;;;;;48.80;26.88;;;-0.20;99.90;;;;;;4845707;29;20073;-79
2022/12/14 02:31:46;;;;;;;51.58;26.73;;;-0.20;99.90;;;;;;4830897;29;20054;-81
2022/12/14 02:34:36;;;;;;;52.63;27.95;;;-0.20;99.90;;;;;;4832224;29;20058;-81
2022/12/14 02:37:21;;;;;;;52.78;27.05;;;-0.30;99.90;;;;;;4835003;29;20058;-81
2022/12/14 02:40:14;;;;;;;54.15;28.50;;;-0.30;99.90;;;;;;4838790;29;20068;-81
2022/12/14 02:42:46;;;;;;;48.40;25.95;;;-0.30;99.90;;;;;;4836353;29;20149;-81
2022/12/14 02:45:42;;;;;;;52.13;26.48;;;-0.30;99.90;;;;;;4834157;29;20641;-80
2022/12/14 02:48:21;;;;;;;54.20;25.92;;;-0.40;99.90;;;;;;4832817;29;20057;-79
2022/12/14 02:50:53;;;;;;;50.78;26.10;;;-0.40;99.90;;;;;;4829958;29;20065;-80
2022/12/14 02:53:32;;;;;;;53.20;29.02;;;-0.40;99.90;;;;;;4844660;29;20054;-81
2022/12/14 02:56:04;;;;;;;54.00;28.35;;;-0.50;99.90;;;;;;4841942;29;20157;-80
2022/12/14 02:58:47;;;;;;;52.28;27.85;;;-0.50;99.90;;;;;;4841166;29;20521;-80
2022/12/14 03:01:18;;;;;;;48.00;26.23;;;-0.60;99.90;;;;;;4835745;29;20097;-79
2022/12/14 03:03:45;;;;;;;60.17;30.38;;;-0.60;99.90;;;;;;4838229;29;20066;-81
2022/12/14 03:06:27;;;;;;;52.50;28.27;;;-0.70;99.90;;;;;;4841267;29;20585;-80
2022/12/14 03:09:02;;;;;;;48.67;27.98;;;-0.70;99.90;;;;;;4833224;29;20086;-81
2022/12/14 03:11:57;;;;;;;53.30;28.67;;;-0.70;99.90;;;;;;4830423;29;20100;-80
2022/12/14 03:14:36;;;;;;;56.28;28.30;;;-0.70;99.90;;;;;;4844726;29;20050;-81
2022/12/14 03:17:09;;;;;;;51.90;28.60;;;-0.70;99.90;;;;;;4831749;29;20115;-80
2022/12/14 03:19:48;;;;;;;58.90;31.05;;;-0.70;99.90;;;;;;4834661;29;20540;-82
2022/12/14 03:22:31;;;;;;;57.60;30.02;;;-0.70;99.90;;;;;;4839104;29;20085;-81
2022/12/14 03:25:02;;;;;;;59.53;30.70;;;-0.80;99.90;;;;;;4839045;29;20061;-81
2022/12/14 03:27:31;;;;;;;59.28;31.00;;;-0.80;99.90;;;;;;4840524;29;20082;-81
2022/12/14 03:30:03;;;;;;;58.17;30.73;;;-0.80;99.90;;;;;;4835488;29;20057;-80
2022/12/14 03:32:32;;;;;;;61.95;29.95;;;-0.80;99.90;;;;;;4835957;29;20351;-80
2022/12/14 03:35:10;;;;;;;53.95;27.40;;;-0.80;99.90;;;;;;4842870;29;20141;-80
2022/12/14 03:37:39;;;;;;;57.17;29.38;;;-0.80;99.90;;;;;;4849630;29;20081;-79
2022/12/14 03:40:09;;;;;;;58.80;29.98;;;-0.80;99.90;;;;;;4848193;29;20058;-79
2022/12/14 03:42:58;;;;;;;51.30;28.85;;;-0.80;99.90;;;;;;4839606;29;20141;-80
2022/12/14 03:45:49;;;;;;;56.38;29.05;;;-0.70;99.90;;;;;;4839937;29;20056;-81
2022/12/14 03:48:30;;;;;;;55.05;28.27;;;-0.60;99.90;;;;;;4839720;29;20066;-81
2022/12/14 03:51:10;;;;;;;55.85;29.13;;;-0.60;99.90;;;;;;4838052;29;20145;-80
2022/12/14 03:54:02;;;;;;;53.85;28.30;;;-0.60;99.90;;;;;;4841660;29;20061;-80
2022/12/14 03:56:46;;;;;;;55.50;29.90;;;-0.60;99.90;;;;;;4837291;29;20050;-80
2022/12/14 03:59:53;;;;;;;58.70;30.40;;;-0.60;99.90;;;;;;4828324;29;20058;-80
2022/12/14 04:02:33;;;;;;;54.85;29.02;;;-0.50;99.90;;;;;;4836510;29;20423;-81
2022/12/14 04:05:38;;;;;;;57.03;29.48;;;-0.50;99.90;;;;;;4834739;29;20058;-80
2022/12/14 04:08:16;;;;;;;54.65;27.65;;;-0.50;99.90;;;;;;4833307;29;20516;-80
2022/12/14 04:19:27;;;;;;;52.13;27.38;;;-0.50;99.90;;;;;;4839131;29;20054;-80
2022/12/14 04:21:58;;;;;;;57.47;30.15;;;-0.40;99.90;;;;;;4839439;29;20321;-80
2022/12/14 04:27:33;;;;;;;51.92;26.50;;;-0.40;99.90;;;;;;4835322;29;20106;-80
2022/12/14 04:30:02;;;;;;;52.10;28.83;;;-0.40;99.90;;;;;;4832663;29;20081;-80
2022/12/14 04:32:32;;;;;;;55.23;28.03;;;-0.30;99.90;;;;;;4830716;29;20394;-80
2022/12/14 04:35:14;;;;;;;49.70;26.67;;;-0.30;99.90;;;;;;4828451;29;20423;-79
2022/12/14 04:37:44;;;;;;;52.05;27.98;;;-0.30;99.90;;;;;;4824195;29;20066;-81
2022/12/14 04:40:19;;;;;;;54.22;28.50;;;-0.30;99.90;;;;;;4839201;29;20398;-81
2022/12/14 04:42:58;;;;;;;51.92;26.60;;;-0.30;99.90;;;;;;4838821;29;20121;-80
2022/12/14 04:45:40;;;;;;;52.70;27.90;;;-0.30;99.90;;;;;;4829533;29;20054;-80
2022/12/14 04:48:16;;;;;;;54.60;29.27;;;-0.30;99.90;;;;;;4832328;29;20046;-80
2022/12/14 04:50:53;;;;;;;58.83;29.50;;;-0.20;99.90;;;;;;4838234;29;20137;-77
2022/12/14 04:53:28;;;;;;;52.97;27.90;;;-0.20;99.90;;;;;;4837138;29;20054;-80
2022/12/14 04:56:10;;;;;;;52.55;27.48;;;-0.10;99.90;;;;;;4828684;29;20084;-80
2022/12/14 04:58:38;;;;;;;51.97;29.00;;;-0.10;99.90;;;;;;4827779;29;20345;-81
2022/12/14 05:01:14;;;;;;;55.63;27.48;;;0.00;99.90;;;;;;4836609;29;20061;-80
2022/12/14 05:04:08;;;;;;;54.10;29.25;;;0.00;99.90;;;;;;4828107;29;20058;-81
2022/12/14 05:06:59;;;;;;;52.13;27.75;;;0.00;99.90;;;;;;4844508;29;20089;-82
2022/12/14 05:09:30;;;;;;;50.70;27.88;;;0.00;99.90;;;;;;4836525;29;20158;-81
2022/12/14 05:12:10;;;;;;;50.92;27.50;;;0.00;99.90;;;;;;4832570;29;20065;-81
2022/12/14 05:14:41;;;;;;;;;;;0.00;99.90;;;;;;4838609;29;20588;-81
2022/12/14 05:17:08;;;;;;;53.38;27.40;;;0.00;99.90;;;;;;4837933;29;19925;-81
2022/12/14 05:19:36;;;;;;;52.50;27.55;;;0.00;99.90;;;;;;4827392;29;20058;-81
2022/12/14 05:22:05;;;;;;;52.40;28.63;;;0.00;99.90;;;;;;4835060;29;20046;-80
2022/12/14 05:24:32;;;;;;;51.63;27.02;;;0.00;99.90;;;;;;4837806;29;20055;-81
2022/12/14 05:26:59;;;;;;;47.03;27.23;;;0.00;99.90;;;;;;4839151;29;20419;-80
2022/12/14 05:29:26;;;;;;;51.33;27.20;;;0.10;99.90;;;;;;4836172;29;20419;-80
2022/12/14 05:31:52;;;;;;;54.13;29.02;;;0.10;99.90;;;;;;4833471;29;20054;-80
2022/12/14 05:34:19;;;;;;;55.45;28.02;;;0.00;99.90;;;;;;4836851;29;20141;-81
2022/12/14 05:36:46;;;;;;;48.55;27.60;;;0.00;99.90;;;;;;4837248;29;20058;-80
2022/12/14 05:39:14;;;;;;;52.13;27.00;;;0.10;99.90;;;;;;4833151;29;20065;-82
2022/12/14 05:41:41;;;;;;;50.40;27.75;;;0.10;99.90;;;;;;4826821;29;20596;-80
2022/12/14 05:44:08;;;;;;;49.35;26.13;;;0.10;99.90;;;;;;4841523;29;20473;-81
2022/12/14 05:46:34;;;;;;;51.35;28.73;;;0.10;99.90;;;;;;4843817;29;20058;-81
2022/12/14 05:49:01;;;;;;;49.20;27.88;;;0.00;99.90;;;;;;4836471;29;20063;-81
2022/12/14 05:51:28;;;;;;;52.40;27.63;;;-0.10;99.90;;;;;;4836485;29;20146;-81
2022/12/14 05:53:57;;;;;;;52.58;28.15;;;-0.10;99.90;;;;;;4838674;29;20425;-81
2022/12/14 05:56:24;;;;;;;52.65;29.42;;;-0.10;99.90;;;;;;4836853;29;20141;-80
2022/12/14 05:58:51;;;;;;;53.50;28.88;;;-0.10;99.90;;;;;;4832628;29;20428;-81
2022/12/14 06:01:17;;;;;;;53.35;28.10;;;-0.20;99.90;;;;;;4831537;29;20081;-80
2022/12/14 06:03:45;;;;;;;51.20;27.08;;;-0.20;99.90;;;;;;4831518;29;20069;-81
2022/12/14 06:06:13;;;;;;;57.65;29.73;;;-0.20;99.90;;;;;;4845103;29;20057;-81
2022/12/14 06:08:42;;;;;;;59.45;29.58;;;-0.20;99.90;;;;;;4843980;29;20146;-81
2022/12/14 06:11:18;;;;;;;59.50;29.33;;;-0.20;99.90;;;;;;4841460;29;20050;-81
2022/12/14 06:13:46;;;;;;;58.42;28.73;;;-0.20;99.90;;;;;;4838578;29;20129;-81
2022/12/14 06:16:20;;;;;;;53.75;29.83;;;-0.30;99.90;;;;;;4836953;29;20110;-81
2022/12/14 06:18:53;;;;;;;54.92;30.13;;;-0.20;99.90;;;;;;4836778;29;20144;-81
2022/12/14 06:21:22;;;;;;;59.72;30.55;;;-0.20;99.90;;;;;;4844867;29;20058;-81
2022/12/14 06:23:49;;;;;;;52.40;27.05;;;-0.10;99.90;;;;;;4831719;29;20459;-82
2022/12/14 06:26:16;;;;;;;64.80;38.25;;;-0.20;99.90;;;;;;4840313;29;20417;-81
2022/12/14 06:28:44;;;;;;;55.08;32.90;;;-0.10;99.90;;;;;;4845688;29;20058;-81
2022/12/14 06:31:30;;;;;;;57.50;29.27;;;-0.20;99.90;;;;;;4844252;29;20141;-81
2022/12/14 06:34:02;;;;;;;57.08;30.33;;;-0.10;99.90;;;;;;4845747;29;20607;-81
2022/12/14 06:36:34;;;;;;;51.67;28.80;;;-0.20;99.90;;;;;;4842731;29;20144;-81
2022/12/14 06:39:05;;;;;;;61.50;29.85;;;-0.20;99.90;;;;;;4840343;29;20058;-81
2022/12/14 06:41:32;;;;;;;54.53;29.58;;;-0.20;99.90;;;;;;4834639;29;20134;-79
2022/12/14 06:44:07;;;;;;;58.28;29.30;;;-0.20;99.90;;;;;;4848043;29;20057;-81
2022/12/14 06:46:34;;;;;;;56.28;30.27;;;-0.10;99.90;;;;;;4836627;29;20390;-80
2022/12/14 06:49:02;;;;;;;53.85;28.45;;;-0.10;99.90;;;;;;4831602;29;20055;-82
2022/12/14 06:51:29;;;;;;;44.83;23.25;;;0.00;99.90;;;;;;4844106;29;20053;-80
2022/12/14 06:53:56;;;;;;;51.05;27.05;;;-0.10;99.90;;;;;;4839132;29;20405;-80
2022/12/14 06:56:26;;;;;;;52.25;27.27;;;-0.20;99.90;;;;;;4836084;29;20054;-83
2022/12/14 06:58:53;;;;;;;50.42;27.83;;;-0.20;99.90;;;;;;4834680;29;20136;-79
2022/12/14 07:01:22;;;;;;;48.80;26.95;;;-0.20;99.90;;;;;;4831458;29;20080;-83
2022/12/14 07:03:54;;;;;;;51.10;26.13;;;-0.20;99.90;;;;;;4829717;29;20103;-84
2022/12/14 07:06:22;;;;;;;52.10;28.95;;;-0.20;99.90;;;;;;4827118;29;20060;-81
2022/12/14 07:08:52;;;;;;;50.90;26.67;;;-0.20;99.90;;;;;;4837700;29;20500;-80
2022/12/14 07:11:20;;;;;;;52.85;26.70;;;-0.20;99.90;;;;;;4838267;29;20053;-81
2022/12/14 07:13:47;;;;;;;53.60;28.83;;;-0.20;99.90;;;;;;4838030;29;20142;-82
2022/12/14 07:16:18;;;;;;;56.05;26.98;;;-0.20;99.90;;;;;;4835918;29;20137;-81
2022/12/14 07:18:44;;;;;;;;;;;-0.20;99.90;;;;;;4836187;29;20058;-81
2022/12/14 07:21:14;;;;;;;51.80;26.52;;;-0.10;99.90;;;;;;4832816;29;19924;-81
2022/12/14 07:23:42;;;;;;;54.83;28.20;;;-0.10;99.90;;;;;;4837631;29;20058;-80
2022/12/14 07:26:10;;;;;;;47.45;24.88;;;-0.10;99.90;;;;;;4840560;29;20474;-83
2022/12/14 07:28:38;;;;;;;49.05;25.50;;;-0.20;99.90;;;;;;4842672;29;20082;-81
2022/12/14 07:31:08;;;;;;;61.00;29.02;;;-0.20;99.90;;;;;;4840845;29;20133;-81
2022/12/14 07:33:35;;;;;;;52.75;28.55;;;-0.20;99.90;;;;;;4840822;29;20061;-81
2022/12/14 07:36:11;;;;;;;55.63;28.10;;;-0.20;99.90;;;;;;4838712;29;20068;-80
2022/12/14 07:38:39;;;;;;;49.55;26.45;;;-0.20;99.90;;;;;;4837384;29;20066;-81
2022/12/14 07:41:12;;;;;;;54.92;26.90;;;-0.20;99.90;;;;;;4836827;29;20152;-83
2022/12/14 07:43:45;;;;;;;52.42;26.50;;;-0.10;99.90;;;;;;4831561;29;20457;-80
2022/12/14 07:46:18;;;;;;;52.80;25.77;;;-0.10;99.90;;;;;;4831694;29;20050;-81
2022/12/14 07:48:47;;;;;;;48.88;24.40;;;-0.10;99.90;;;;;;4835863;29;20058;-81
2022/12/14 07:51:17;;;;;;;45.75;24.88;;;-0.20;99.90;;;;;;4842934;29;20660;-83
2022/12/14 07:53:45;;;;;;;50.42;25.30;;;-0.20;99.90;;;;;;4843624;29;20132;-81
2022/12/14 07:56:16;;;;;;;41.15;22.90;;;-0.20;99.90;;;;;;4837349;29;20050;-80
2022/12/14 07:58:43;;;;;;;42.60;23.25;;;-0.20;99.90;;;;;;4835669;29;20458;-80
2022/12/14 08:01:14;;;;;;;41.42;21.70;;;-0.40;99.90;;;;;;4832619;29;20065;-81
2022/12/14 08:03:46;;;;;;;42.67;23.42;;;-0.40;99.90;;;;;;4831272;29;20058;-82
2022/12/14 08:06:15;;;;;;;38.80;22.67;;;-0.40;99.90;;;;;;4829846;29;20062;-80
2022/12/14 08:08:43;;;;;;;41.65;23.33;;;-0.40;99.90;;;;;;4832783;29;20058;-80
2022/12/14 08:11:10;;;;;;;41.10;22.55;;;-0.40;99.90;;;;;;4827880;29;20077;-80
2022/12/14 08:13:38;;;;;;;45.40;23.10;;;-0.40;99.90;;;;;;4839600;29;20058;-79
2022/12/14 08:16:08;;;;;;;40.65;21.50;;;-0.30;99.90;;;;;;4837177;29;20046;-81
2022/12/14 08:18:35;;;;;;;39.85;21.85;;;-0.30;99.90;;;;;;4839016;29;20058;-80
2022/12/14 08:21:04;;;;;;;41.28;22.50;;;-0.40;99.90;;;;;;4836775;29;20081;-81
2022/12/14 08:23:31;;;;;;;38.20;21.70;;;-0.40;99.90;;;;;;4833803;29;20059;-78
2022/12/14 08:26:00;;;;;;;44.75;24.58;;;-0.50;99.90;;;;;;4830756;29;20047;-81
2022/12/14 08:28:28;;;;;;;47.30;23.23;;;-0.50;99.90;;;;;;4839494;29;20136;-81
2022/12/14 08:30:55;;;;;;;45.60;23.38;;;-0.50;99.90;;;;;;4828133;29;20078;-82
2022/12/14 08:33:23;;;;;;;41.25;21.58;;;-0.40;99.90;;;;;;4835459;29;20049;-81
2022/12/14 08:35:50;;;;;;;41.20;22.63;;;-0.50;99.90;;;;;;4839619;29;20128;-81
2022/12/14 08:38:17;;;;;;;40.17;21.42;;;-0.50;99.90;;;;;;4836132;29;20074;-81
2022/12/14 08:40:43;;;;;;;39.28;21.60;;;-0.40;99.90;;;;;;4831845;29;20158;-83
2022/12/14 08:43:10;;;;;;;45.58;22.60;;;-0.50;99.90;;;;;;4841394;29;20078;-82
2022/12/14 08:45:37;;;;;;;41.47;22.27;;;-0.50;99.90;;;;;;4831700;29;20068;-80
2022/12/14 08:48:04;;;;;;;52.35;25.95;;;-0.40;99.90;;;;;;4833793;29;20149;-83
2022/12/14 08:50:31;;;;;;;48.05;27.15;;;-0.40;99.90;;;;;;4837275;29;20053;-80
2022/12/14 08:52:58;;;;;;;54.10;27.48;;;-0.40;99.90;;;;;;4834265;29;20058;-83
2022/12/14 08:55:25;;;;;;;56.80;28.65;;;-0.30;99.90;;;;;;4830243;29;20521;-83
2022/12/14 08:57:58;;;;;;;52.25;27.52;;;-0.20;99.90;;;;;;4836739;29;20532;-81
2022/12/14 09:00:24;;;;;;;51.05;27.42;;;-0.20;99.90;;;;;;4827402;29;20046;-82
2022/12/14 09:02:51;;;;;;;51.38;28.33;;;-0.20;99.90;;;;;;4833294;29;20073;-80
2022/12/14 09:05:18;;;;;;;53.85;28.23;;;-0.10;99.90;;;;;;4831725;29;20050;-80
2022/12/14 09:07:45;;;;;;;48.58;27.35;;;-0.10;99.90;;;;;;4833048;29;20125;-79
2022/12/14 09:10:12;;;;;;;52.53;27.10;;;0.00;99.90;;;;;;4830068;29;20476;-82
2022/12/14 09:12:39;;;;;;;52.92;28.50;;;0.00;99.90;;;;;;4841926;29;20054;-81
2022/12/14 09:15:06;;;;;;;50.50;27.60;;;0.10;99.90;;;;;;4835446;29;20516;-81
2022/12/14 09:17:33;;;;;;;54.35;29.77;;;0.10;99.90;;;;;;4837629;29;20058;-80
2022/12/14 09:20:00;;;;;;;52.40;27.38;;;0.20;99.90;;;;;;4833007;29;20153;-79
2022/12/14 09:22:27;;;;;;;50.00;26.23;;;0.20;99.90;;;;;;4833190;29;20141;-80
2022/12/14 09:24:54;;;;;;;46.72;25.63;;;0.20;99.90;;;;;;4839006;29;20065;-81
2022/12/14 09:27:21;;;;;;;55.88;29.20;;;0.20;99.90;;;;;;4829200;29;20058;-80
2022/12/14 09:29:49;;;;;;;53.38;28.80;;;0.30;99.90;;;;;;4838409;29;20068;-81
2022/12/14 09:32:16;;;;;;;49.20;26.30;;;0.30;99.90;;;;;;4834538;29;20046;-81
2022/12/14 09:34:42;;;;;;;50.78;26.33;;;0.30;99.90;;;;;;4835228;29;20046;-81
2022/12/14 09:37:09;;;;;;;60.95;31.13;;;0.30;99.90;;;;;;4830921;29;20046;-81
2022/12/14 09:39:36;;;;;;;52.83;28.90;;;0.30;99.90;;;;;;4832471;29;20082;-80
2022/12/14 09:42:24;;;;;;;54.72;26.63;;;0.40;99.90;;;;;;4831540;29;20056;-81
2022/12/14 09:45:04;;;;;;;49.33;27.83;;;0.40;99.90;;;;;;4832616;29;20053;-80
2022/12/14 09:47:42;;;;;;;47.05;27.00;;;0.60;99.90;;;;;;4835759;29;20060;-80
2022/12/14 09:50:15;;;;;;;46.78;26.02;;;0.60;99.90;;;;;;4836142;29;20490;-81
2022/12/14 09:52:51;;;;;;;39.45;22.63;;;0.60;99.90;;;;;;4836740;29;20322;-78
2022/12/14 09:55:25;;;;;;;37.08;20.42;;;0.70;99.90;;;;;;4838147;29;20501;-80
2022/12/14 09:58:13;;;;;;;37.67;21.67;;;0.70;99.90;;;;;;4834941;29;20050;-79
2022/12/14 10:00:50;;;;;;;33.75;20.88;;;0.70;99.90;;;;;;4839673;29;20221;-81
2022/12/14 10:04:07;;;;;;;36.03;20.48;;;0.80;99.90;;;;;;4830727;29;20052;-80
2022/12/14 10:07:11;;;;;;;31.77;21.10;;;0.90;99.90;;;;;;4828279;29;20086;-79
2022/12/14 10:10:12;;;;;;;37.35;21.70;;;1.00;99.90;;;;;;4837215;29;20079;-80
2022/12/14 10:13:27;;;;;;;35.53;20.42;;;1.10;99.90;;;;;;4836916;29;20125;-80
2022/12/14 10:16:14;;;;;;;36.60;21.50;;;1.10;99.90;;;;;;4831040;29;20054;-80
2022/12/14 10:19:08;;;;;;;36.22;20.80;;;1.20;99.90;;;;;;4830664;29;20087;-81
2022/12/14 10:21:53;;;;;;;43.83;23.67;;;1.30;99.90;;;;;;4826427;29;20061;-80
2022/12/14 10:24:25;;;;;;;39.28;22.15;;;1.30;99.90;;;;;;4825820;29;20055;-82
2022/12/14 10:26:54;;;;;;;35.03;21.88;;;1.30;99.90;;;;;;4834945;29;20058;-80
2022/12/14 10:29:36;;;;;;;36.13;20.95;;;1.30;99.90;;;;;;4832630;29;20058;-79
2022/12/14 10:32:27;;;;;;;32.15;20.60;;;1.40;99.90;;;;;;4832174;29;20050;-80
2022/12/14 10:34:53;;;;;;;34.67;21.00;;;1.40;99.90;;;;;;4833434;29;20064;-81
2022/12/14 10:37:36;;;;;;;36.20;21.35;;;1.40;99.90;;;;;;4837047;29;20047;-80
2022/12/14 10:40:09;;;;;;;34.53;21.23;;;1.40;99.90;;;;;;4835166;29;20118;-80
2022/12/14 10:43:11;;;;;;;35.45;21.73;;;1.40;99.90;;;;;;4839305;29;20054;-79
2022/12/14 10:46:09;;;;;;;36.72;22.88;;;1.50;99.90;;;;;;4833994;29;20060;-81
2022/12/14 10:49:11;;;;;;;43.92;24.75;;;1.40;99.90;;;;;;4842020;29;20080;-81
2022/12/14 10:51:40;;;;;;;42.45;23.88;;;1.40;99.90;;;;;;4835593;29;20086;-82
2022/12/14 10:54:25;;;;;;;41.15;24.45;;;1.40;99.90;;;;;;4839439;29;20055;-80
2022/12/14 10:56:52;;;;;;;38.08;22.58;;;1.40;99.90;;;;;;4837988;29;20056;-81
2022/12/14 10:59:25;;;;;;;41.70;23.95;;;1.40;99.90;;;;;;4834162;29;20054;-80
2022/12/14 11:01:54;;;;;;;43.42;26.20;;;1.40;99.90;;;;;;4830271;29;20509;-82
2022/12/14 11:04:28;;;;;;;44.87;26.27;;;1.40;99.90;;;;;;4841728;29;20106;-80
2022/12/14 11:07:01;;;;;;;45.75;26.73;;;1.40;99.90;;;;;;4831379;29;20055;-81
2022/12/14 11:09:28;;;;;;;44.75;23.90;;;1.40;99.90;;;;;;4834364;29;20081;-81
2022/12/14 11:11:58;;;;;;;38.38;22.58;;;1.40;99.90;;;;;;4836893;29;20117;-81
2022/12/14 11:14:26;;;;;;;37.80;22.60;;;1.20;99.90;;;;;;4834702;29;20054;-81
2022/12/14 11:16:53;;;;;;;41.47;24.17;;;1.30;99.90;;;;;;4833988;29;20054;-81
2022/12/14 11:19:23;;;;;;;38.60;23.45;;;1.20;99.90;;;;;;4833000;29;20050;-80
2022/12/14 11:22:03;;;;;;;;;;;1.20;99.90;;;;;;4834067;29;20097;-81
2022/12/14 11:24:30;;;;;;;38.10;21.50;;;1.10;99.90;;;;;;4832448;29;19975;-80
2022/12/14 11:27:02;;;;;;;39.65;22.90;;;1.10;99.90;;;;;;4832222;29;20062;-80
2022/12/14 11:29:38;;;;;;;47.72;24.95;;;1.20;99.90;;;;;;4836012;29;20141;-81
2022/12/14 11:32:05;;;;;;;43.13;23.88;;;1.20;99.90;;;;;;4845764;29;20060;-80
2022/12/14 11:34:38;;;;;;;38.38;23.08;;;1.30;99.90;;;;;;4842514;29;20569;-81
2022/12/14 11:37:10;;;;;;;37.00;23.70;;;1.30;99.90;;;;;;4842359;29;20058;-80
2022/12/14 11:39:41;;;;;;;41.20;23.08;;;1.40;99.90;;;;;;4840659;29;20536;-80
2022/12/14 11:42:16;;;;;;;38.53;22.58;;;1.30;99.90;;;;;;4828451;29;20078;-80
2022/12/14 11:44:44;;;;;;;42.10;24.48;;;1.30;99.90;;;;;;4826185;29;20062;-80
2022/12/14 11:47:14;;;;;;;36.40;21.42;;;1.30;99.90;;;;;;4853561;29;20071;-84
2022/12/14 11:49:43;;;;;;;40.72;23.88;;;1.30;99.90;;;;;;4856755;29;20045;-83
2022/12/14 11:52:17;;;;;;;40.67;21.90;;;1.30;99.90;;;;;;4858522;29;20035;-82
2022/12/14 11:55:02;;;;;;;35.65;20.45;;;1.10;99.90;;;;;;4857700;29;20034;-83
2022/12/14 11:57:40;;;;;;;42.20;22.83;;;1.10;99.90;;;;;;4847040;29;20058;-79
2022/12/14 12:00:36;;;;;;;40.20;23.17;;;1.20;99.90;;;;;;4838560;29;20055;-80
2022/12/14 12:03:46;;;;;;;38.25;22.63;;;1.20;99.90;;;;;;4820817;29;20110;-82
2022/12/14 12:06:19;;;;;;;36.17;21.17;;;1.10;99.90;;;;;;4822046;29;20050;-83
2022/12/14 12:08:52;;;;;;;36.20;19.53;;;1.20;99.90;;;;;;4834549;29;20053;-81
2022/12/14 12:11:22;;;;;;;31.60;18.73;;;1.20;99.90;;;;;;4838498;29;20080;-82
2022/12/14 12:13:51;;;;;;;35.08;20.05;;;1.20;99.90;;;;;;4832629;29;20077;-81
2022/12/14 12:16:25;;;;;;;29.00;17.25;;;1.20;99.90;;;;;;4832876;29;20125;-81
2022/12/14 12:18:57;;;;;;;34.70;19.90;;;1.20;99.90;;;;;;4835135;29;20056;-81
2022/12/14 12:21:29;;;;;;;33.97;19.08;;;1.20;99.90;;;;;;4837969;29;20052;-82
2022/12/14 12:24:17;;;;;;;30.42;18.63;;;1.20;99.90;;;;;;4828073;29;20186;-82
2022/12/14 12:27:10;;;;;;;29.23;16.58;;;1.20;99.90;;;;;;4833753;29;20081;-81
2022/12/14 12:29:40;;;;;;;30.10;17.20;;;1.10;99.90;;;;;;4835763;29;20054;-82
2022/12/14 12:32:13;;;;;;;29.08;17.90;;;1.00;99.90;;;;;;4829448;29;20512;-83
2022/12/14 12:34:42;;;;;;;32.67;22.85;;;1.00;99.90;;;;;;4831840;29;20054;-81
2022/12/14 12:37:14;;;;;;;29.17;16.13;;;1.00;99.90;;;;;;4839384;29;20431;-81
2022/12/14 12:40:02;;;;;;;25.45;16.83;;;1.10;99.90;;;;;;4832650;29;20054;-81
2022/12/14 12:42:57;;;;;;;28.05;17.15;;;1.10;99.90;;;;;;4833876;29;20591;-82
2022/12/14 12:45:33;;;;;;;30.90;18.50;;;1.20;99.90;;;;;;4835978;29;20061;-82
2022/12/14 12:48:06;;;;;;;30.33;18.38;;;1.20;99.90;;;;;;4836498;29;20073;-82
2022/12/14 12:50:38;;;;;;;31.13;18.77;;;1.20;99.90;;;;;;4832051;29;20411;-81
2022/12/14 12:53:17;;;;;;;29.25;18.15;;;1.30;99.90;;;;;;4834801;29;20558;-82
2022/12/14 12:55:52;;;;;;;29.23;17.73;;;1.40;99.90;;;;;;4832442;29;20046;-83
2022/12/14 12:58:23;;;;;;;30.08;18.40;;;1.30;99.90;;;;;;4833081;29;20061;-82
2022/12/14 13:00:54;;;;;;;27.27;17.38;;;1.40;99.90;;;;;;4835335;29;20484;-82
2022/12/14 13:03:36;;;;;;;26.90;16.58;;;1.30;99.90;;;;;;4845145;29;20084;-82
2022/12/14 13:06:26;;;;;;;31.83;18.35;;;1.30;99.90;;;;;;4837924;29;20129;-83
2022/12/14 13:08:59;;;;;;;37.47;21.77;;;1.40;99.90;;;;;;4839690;29;20058;-81
2022/12/14 13:11:37;;;;;;;30.17;16.83;;;1.40;99.90;;;;;;4841279;29;20068;-83
2022/12/14 13:14:29;;;;;;;31.25;19.48;;;1.50;99.90;;;;;;4828155;29;20141;-83
2022/12/14 13:16:59;;;;;;;30.08;17.70;;;1.50;99.90;;;;;;4830180;29;20080;-82